Terminal Aerodrome Forecast
Issued by NWS Grand Junction, CO

Home | Current Version | Previous Version | Text Only | Print | Product List | Glossary On
Versions: 1 2 3 4 5 6 7 8 9 10 11 12 13 14 15 16 17 18 19 20 21 22 23
000
FTUS45 KGJT 292333
TAFGJT
TAF
KGJT 292333Z 3000/3024 16004KT P6SM SCT100 OVC150
     FM300100 09004KT P6SM SCT070 OVC110
     FM300700 11005KT P6SM VCSH BKN070 OVC100
     FM301500 13005KT P6SM BKN050
     FM301800 15004KT 3SM -RA BR OVC015=

USA.gov is the U.S. government's official web portal to all federal, state and local government web resources and services.